createdAt,value
2019-03-18T00:00:18.866Z,7.9
2019-03-18T00:01:20.258Z,7.9
2019-03-18T00:02:21.791Z,7.6
2019-03-18T00:03:23.347Z,7.8
2019-03-18T00:04:24.753Z,7.9
2019-03-18T00:05:26.285Z,7.9
2019-03-18T00:06:27.662Z,7.8
2019-03-18T00:07:29.073Z,7.9
2019-03-18T00:08:30.461Z,7.9
2019-03-18T00:09:32.001Z,7.9
2019-03-18T00:10:33.412Z,7.9
2019-03-18T00:11:34.965Z,7.9
2019-03-18T00:12:36.526Z,7.9
2019-03-18T00:13:37.935Z,7.9
2019-03-18T00:14:39.503Z,7.9
2019-03-18T00:15:40.927Z,7.9
2019-03-18T00:16:42.461Z,7.8
2019-03-18T00:17:44.019Z,7.9
2019-03-18T00:18:45.413Z,7.8
2019-03-18T00:19:46.991Z,7.9
2019-03-18T00:20:48.369Z,7.9
2019-03-18T00:21:49.931Z,7.9
2019-03-18T00:22:51.496Z,7.9
2019-03-18T00:23:52.900Z,7.9
2019-03-18T00:24:54.462Z,7.9
2019-03-18T00:25:55.547Z,7.9
2019-03-18T00:26:56.921Z,7.7
2019-03-18T00:27:58.473Z,7.8
2019-03-18T00:28:59.870Z,7.9
2019-03-18T00:30:01.541Z,7.9
2019-03-18T00:31:03.108Z,7.8
2019-03-18T00:32:04.507Z,7.9
2019-03-18T00:33:06.057Z,7.9
2019-03-18T00:34:07.643Z,7.9
2019-03-18T00:35:09.185Z,7.9
2019-03-18T00:36:10.729Z,7.9
2019-03-18T00:37:12.279Z,7.9
2019-03-18T00:38:13.901Z,7.9
2019-03-18T00:39:15.162Z,7.9
2019-03-18T00:40:16.450Z,7.9
2019-03-18T00:41:17.541Z,7.9
2019-03-18T00:42:18.616Z,7.9
2019-03-18T00:43:20.252Z,7.9
2019-03-18T00:44:21.480Z,7.9
2019-03-18T00:45:22.853Z,7.9
2019-03-18T00:46:24.403Z,7.9
2019-03-18T00:47:25.805Z,7.9
2019-03-18T00:48:27.362Z,7.9
2019-03-18T00:49:28.755Z,7.9
2019-03-18T00:50:30.327Z,7.7
2019-03-18T00:51:31.870Z,7.8
2019-03-18T00:52:33.297Z,7.9
2019-03-18T00:53:34.853Z,7.9
2019-03-18T00:54:36.251Z,7.9
2019-03-18T00:55:37.653Z,7.9
2019-03-18T00:56:39.029Z,7.9
2019-03-18T00:57:40.571Z,7.9
2019-03-18T00:58:41.953Z,7.9
2019-03-18T00:59:43.180Z,7.9
2019-03-18T01:00:44.721Z,7.9
2019-03-18T01:01:46.222Z,7.9
2019-03-18T01:02:51.312Z,7.9
2019-03-18T01:03:52.943Z,7.8
2019-03-18T01:04:54.486Z,7.8
2019-03-18T01:05:55.893Z,7.8
2019-03-18T01:06:57.295Z,7.8
2019-03-18T01:07:58.851Z,7.8
2019-03-18T01:09:00.429Z,7.8
2019-03-18T01:10:02.067Z,7.8
2019-03-18T01:11:03.694Z,7.9
2019-03-18T01:12:05.254Z,7.9
2019-03-18T01:13:06.802Z,7.9
2019-03-18T01:14:08.349Z,7.9
2019-03-18T01:15:09.886Z,7.9
2019-03-18T01:16:11.453Z,7.9
2019-03-18T01:17:13.020Z,7.9
2019-03-18T01:18:14.260Z,7.9
2019-03-18T01:19:15.811Z,7.9
2019-03-18T01:20:17.369Z,7.9
2019-03-18T01:21:18.906Z,7.9
2019-03-18T01:22:20.360Z,7.9
2019-03-18T01:23:21.930Z,7.9
2019-03-18T01:24:23.166Z,7.9
2019-03-18T01:25:24.548Z,7.9
2019-03-18T01:26:26.096Z,7.9
2019-03-18T01:27:27.655Z,7.9
2019-03-18T01:28:29.207Z,7.9
2019-03-18T01:29:30.678Z,7.9
2019-03-18T01:30:32.088Z,7.9
2019-03-18T01:31:33.479Z,7.9
2019-03-18T01:32:35.034Z,7.4
2019-03-18T01:33:36.593Z,7.5
2019-03-18T01:34:38.374Z,7.5
2019-03-18T01:35:41.605Z,7.6
2019-03-18T01:36:43.142Z,7.7
2019-03-18T01:37:44.526Z,7.7
2019-03-18T01:38:45.931Z,7.8
2019-03-18T01:39:47.524Z,7.8
2019-03-18T01:40:49.095Z,7.8
2019-03-18T01:41:50.480Z,7.8
2019-03-18T01:42:51.724Z,7.8
2019-03-18T01:43:53.288Z,7.8
2019-03-18T01:44:54.723Z,7.8
2019-03-18T01:45:56.278Z,7.8
2019-03-18T01:46:57.840Z,7.8
2019-03-18T01:47:59.398Z,7.8
2019-03-18T01:49:00.803Z,7.8
2019-03-18T01:50:02.360Z,7.8
2019-03-18T01:51:03.749Z,7.8
2019-03-18T01:52:05.301Z,7.8
2019-03-18T01:53:06.709Z,7.8
2019-03-18T01:54:08.108Z,7.8
2019-03-18T01:55:09.648Z,7.8
2019-03-18T01:56:10.888Z,7.8
2019-03-18T01:57:12.458Z,7.9
2019-03-18T01:58:13.866Z,7.9
2019-03-18T01:59:15.241Z,7.9
2019-03-18T02:00:16.801Z,7.8
2019-03-18T02:01:18.187Z,7.9
2019-03-18T02:02:19.120Z,7.9
2019-03-18T02:03:20.711Z,7.9
2019-03-18T02:04:21.979Z,7.8
2019-03-18T02:05:23.400Z,7.8
2019-03-18T02:06:24.953Z,7.7
2019-03-18T02:07:26.504Z,7.6
2019-03-18T02:08:27.888Z,7.5
2019-03-18T02:09:29.294Z,7.4
2019-03-18T02:10:30.923Z,7.2
2019-03-18T02:11:32.323Z,7.1
2019-03-18T02:12:33.718Z,7.1
2019-03-18T02:13:35.114Z,7.1
2019-03-18T02:14:36.652Z,7.1
2019-03-18T02:15:38.062Z,7.1
2019-03-18T02:16:39.451Z,7.1
2019-03-18T02:17:41.064Z,7.2
2019-03-18T02:18:42.486Z,7.2
2019-03-18T02:19:44.100Z,7.2
2019-03-18T02:20:45.648Z,7.2
2019-03-18T02:21:47.197Z,7.2
2019-03-18T02:22:48.783Z,7.2
2019-03-18T02:23:50.184Z,7.1
2019-03-18T02:24:51.731Z,7.1
2019-03-18T02:25:53.124Z,7.1
2019-03-18T02:26:54.516Z,7.1
2019-03-18T02:27:56.044Z,7.1
2019-03-18T02:28:57.488Z,7.1
2019-03-18T02:29:58.890Z,7.1
2019-03-18T02:31:00.490Z,7.1
2019-03-18T02:32:01.951Z,7.1
2019-03-18T02:33:03.547Z,7.1
2019-03-18T02:34:05.103Z,7.1
2019-03-18T02:35:06.569Z,7.1
2019-03-18T02:36:08.094Z,7.1
2019-03-18T02:37:09.661Z,7.1
2019-03-18T02:38:11.250Z,7.1
2019-03-18T02:39:12.832Z,7.1
2019-03-18T02:40:14.382Z,7.1
2019-03-18T02:41:16.037Z,7.1
2019-03-18T02:42:17.452Z,7.1
2019-03-18T02:43:19.080Z,7.1
2019-03-18T02:44:20.637Z,7.1
2019-03-18T02:45:26.545Z,7.1
2019-03-18T02:46:28.119Z,7.1
2019-03-18T02:47:29.632Z,7.1
2019-03-18T02:48:31.075Z,7.1
2019-03-18T02:49:32.637Z,7.2
2019-03-18T02:50:34.044Z,7.2
2019-03-18T02:51:35.467Z,7.2
2019-03-18T02:52:37.049Z,7.2
2019-03-18T02:53:38.464Z,7.2
2019-03-18T02:54:40.061Z,7.2
2019-03-18T02:55:41.343Z,7.2
2019-03-18T02:56:42.898Z,7.2
2019-03-18T02:57:44.406Z,7.2
2019-03-18T02:58:45.808Z,7.2
2019-03-18T02:59:47.135Z,7.2
2019-03-18T03:00:48.700Z,7.2
2019-03-18T03:01:50.274Z,7.2
2019-03-18T03:02:51.932Z,7.2
2019-03-18T03:03:53.338Z,7.2
2019-03-18T03:04:54.758Z,7.2
2019-03-18T03:05:56.356Z,7.2
2019-03-18T03:06:57.925Z,7.2
2019-03-18T03:07:59.500Z,7.2
2019-03-18T03:09:01.101Z,7.2
2019-03-18T03:10:02.592Z,7.3
2019-03-18T03:11:04.169Z,7.3
2019-03-18T03:12:05.610Z,7.4
2019-03-18T03:13:07.058Z,7.4
2019-03-18T03:14:08.627Z,7.4
2019-03-18T03:15:10.194Z,7.5
2019-03-18T03:16:28.883Z,7.5
2019-03-18T03:17:30.472Z,7.5
2019-03-18T03:18:32.066Z,7.6
2019-03-18T03:19:33.704Z,7.6
2019-03-18T03:20:35.377Z,7.6
2019-03-18T03:21:37.003Z,7.6
2019-03-18T03:22:38.607Z,7.6
2019-03-18T03:23:40.309Z,7.6
2019-03-18T03:24:41.969Z,7.7
2019-03-18T03:25:43.295Z,7.7
2019-03-18T03:26:44.928Z,7.7
2019-03-18T03:27:46.506Z,7.7
2019-03-18T03:28:47.930Z,7.8
2019-03-18T03:29:49.500Z,7.8
2019-03-18T03:30:51.115Z,7.8
2019-03-18T03:31:52.597Z,7.9
2019-03-18T03:32:54.276Z,7.9
2019-03-18T03:33:55.886Z,7.9
2019-03-18T03:34:57.373Z,7.8
2019-03-18T03:35:58.799Z,7.8
2019-03-18T03:37:00.370Z,7.9
2019-03-18T03:38:01.950Z,7.9
2019-03-18T03:39:03.240Z,7.9
2019-03-18T03:40:04.784Z,7.8
2019-03-18T03:41:06.266Z,7.8
2019-03-18T03:42:07.876Z,7.8
2019-03-18T03:43:09.457Z,7.8
2019-03-18T03:44:11.070Z,7.8
2019-03-18T03:45:12.642Z,7.8
2019-03-18T03:46:14.071Z,7.8
2019-03-18T03:47:15.665Z,7.8
2019-03-18T03:48:17.306Z,7.8
2019-03-18T03:49:18.907Z,7.8
2019-03-18T03:50:20.160Z,7.8
2019-03-18T03:51:21.743Z,7.8
2019-03-18T03:52:23.299Z,7.8
2019-03-18T03:53:24.748Z,7.8
2019-03-18T03:54:26.140Z,7.9
2019-03-18T03:55:27.555Z,7.9
2019-03-18T03:56:29.063Z,7.9
2019-03-18T03:57:30.648Z,7.9
2019-03-18T03:58:32.041Z,7.9
2019-03-18T03:59:33.632Z,7.9
2019-03-18T04:00:35.220Z,7.9
2019-03-18T04:01:36.472Z,7.9
2019-03-18T04:02:38.079Z,7.9
2019-03-18T04:03:40.259Z,7.9
2019-03-18T04:04:41.858Z,7.9
2019-03-18T04:05:43.093Z,7.9
2019-03-18T04:06:44.539Z,7.8
2019-03-18T04:07:46.253Z,7.8
2019-03-18T04:08:47.836Z,7.8
2019-03-18T04:09:49.430Z,7.8
2019-03-18T04:10:51.069Z,7.7
2019-03-18T04:11:52.507Z,7.7
2019-03-18T04:12:54.092Z,7.6
2019-03-18T04:13:55.645Z,7.5
2019-03-18T04:14:57.246Z,7.3
2019-03-18T04:15:58.839Z,7.2
2019-03-18T04:17:04.366Z,7.1
2019-03-18T04:18:05.821Z,7.1
2019-03-18T04:19:07.381Z,7.1
2019-03-18T04:20:08.954Z,7.1
2019-03-18T04:21:10.053Z,7.1
2019-03-18T04:22:11.577Z,7.1
2019-03-18T04:23:13.151Z,7.1
2019-03-18T04:24:14.575Z,7.1
2019-03-18T04:25:15.698Z,7.1
2019-03-18T04:26:16.953Z,7.1
2019-03-18T04:27:18.538Z,7.1
2019-03-18T04:28:19.964Z,7.1
2019-03-18T04:29:21.554Z,7.1
2019-03-18T04:30:22.979Z,7.2
2019-03-18T04:31:24.541Z,7.1
2019-03-18T04:32:26.107Z,7.2
2019-03-18T04:33:27.677Z,7.2
2019-03-18T04:34:29.237Z,7.2
2019-03-18T04:35:30.813Z,7.2
2019-03-18T04:36:32.222Z,7.2
2019-03-18T04:37:33.770Z,7.3
2019-03-18T04:38:35.185Z,7.3
2019-03-18T04:39:36.593Z,7.4
2019-03-18T04:40:38.162Z,7.5
2019-03-18T04:41:39.730Z,7.6
2019-03-18T04:42:41.322Z,7.6
2019-03-18T04:43:42.726Z,7.8
2019-03-18T04:44:44.342Z,7.8
2019-03-18T04:45:45.595Z,7.9
2019-03-18T04:46:47.140Z,7.9
2019-03-18T04:47:48.538Z,7.2
2019-03-18T04:48:50.081Z,7.3
2019-03-18T04:49:51.630Z,7.5
2019-03-18T04:50:53.181Z,7.6
2019-03-18T04:51:54.574Z,7.7
2019-03-18T04:52:56.136Z,7.8
2019-03-18T04:53:57.364Z,7.8
2019-03-18T04:54:58.781Z,7.8
2019-03-18T04:56:00.321Z,7.8
2019-03-18T04:57:01.757Z,7.8
2019-03-18T04:58:03.121Z,7.8
2019-03-18T04:59:04.520Z,7.8
2019-03-18T05:00:06.095Z,7.8
2019-03-18T05:01:07.484Z,7.9
2019-03-18T05:02:08.881Z,7.8
2019-03-18T05:03:09.981Z,7.9
2019-03-18T05:04:11.527Z,7.9
2019-03-18T05:05:12.768Z,7.8
2019-03-18T05:06:14.306Z,7.8
2019-03-18T05:07:15.540Z,7.8
2019-03-18T05:08:16.931Z,7.8
2019-03-18T05:09:18.324Z,7.8
2019-03-18T05:14:32.978Z,7.7
2019-03-18T05:15:34.226Z,7.8
2019-03-18T05:16:35.770Z,7.8
2019-03-18T05:17:37.149Z,7.7
2019-03-18T05:18:38.696Z,7.7
2019-03-18T05:19:40.113Z,7.7
2019-03-18T05:20:41.668Z,7.7
2019-03-18T05:21:43.223Z,7.6
2019-03-18T05:22:44.605Z,7.6
2019-03-18T05:23:45.987Z,7.6
2019-03-18T05:24:47.556Z,7.6
2019-03-18T05:25:49.926Z,7.6
2019-03-18T05:26:51.588Z,7.6
2019-03-18T05:27:53.020Z,7.6
2019-03-18T05:28:54.578Z,7.6
2019-03-18T05:29:56.181Z,7.6
2019-03-18T05:30:57.774Z,7.6
2019-03-18T05:31:59.207Z,7.6
2019-03-18T05:33:00.828Z,7.6
2019-03-18T05:34:02.379Z,7.6
2019-03-18T05:35:03.942Z,7.6
2019-03-18T05:36:05.533Z,7.5
2019-03-18T05:37:06.999Z,7.6
2019-03-18T05:38:08.439Z,7.6
2019-03-18T05:39:10.042Z,7.6
2019-03-18T05:40:11.497Z,7.6
2019-03-18T05:41:12.967Z,7.7
2019-03-18T05:42:14.526Z,7.7
2019-03-18T05:43:16.117Z,7.8
2019-03-18T05:44:17.414Z,7.8
2019-03-18T05:45:18.997Z,7.8
2019-03-18T05:46:20.576Z,7.8
2019-03-18T05:47:21.997Z,7.8
2019-03-18T05:48:23.441Z,7.8
2019-03-18T05:49:24.688Z,7.8
2019-03-18T05:50:26.248Z,7.9
2019-03-18T05:51:27.656Z,7.8
2019-03-18T05:52:29.232Z,7.9
2019-03-18T05:53:30.307Z,7.8
2019-03-18T05:54:31.893Z,7.9
2019-03-18T05:55:33.535Z,7.8
2019-03-18T05:56:34.958Z,7.9
2019-03-18T05:57:36.526Z,7.5
2019-03-18T05:58:37.782Z,7.5
2019-03-18T05:59:39.346Z,7.6
2019-03-18T06:00:40.759Z,7.6
2019-03-18T06:01:42.318Z,7.5
2019-03-18T06:02:47.476Z,7.5
2019-03-18T06:03:48.918Z,7.4
2019-03-18T06:04:50.354Z,7.3
2019-03-18T06:05:51.796Z,7.2
2019-03-18T06:06:53.382Z,7.1
2019-03-18T06:07:54.840Z,7.1
2019-03-18T06:08:56.400Z,7.1
2019-03-18T06:09:57.998Z,7.2
2019-03-18T06:10:59.414Z,7.1
2019-03-18T06:12:01.016Z,7.1
2019-03-18T06:13:02.623Z,7.1
2019-03-18T06:14:04.192Z,7.1
2019-03-18T06:15:05.263Z,7.1
2019-03-18T06:16:06.653Z,7.1
2019-03-18T06:17:08.045Z,7.1
2019-03-18T06:18:09.458Z,7.1
2019-03-18T06:19:10.850Z,7.1
2019-03-18T06:20:12.425Z,7.1
2019-03-18T06:21:13.512Z,7.2
2019-03-18T06:22:15.023Z,7.2
2019-03-18T06:23:16.584Z,7.2
2019-03-18T06:24:17.995Z,7.2
2019-03-18T06:25:19.421Z,7.2
2019-03-18T06:26:20.661Z,7.2
2019-03-18T06:27:22.221Z,7.2
2019-03-18T06:28:23.764Z,7.2
2019-03-18T06:29:28.277Z,7.2
2019-03-18T06:30:29.673Z,7.3
2019-03-18T06:31:31.220Z,7.3
2019-03-18T06:32:32.786Z,7.4
2019-03-18T06:33:34.019Z,7.4
2019-03-18T06:34:35.594Z,7.5
2019-03-18T06:35:37.159Z,7.6
2019-03-18T06:36:38.559Z,7.7
2019-03-18T06:37:40.126Z,7.7
2019-03-18T06:38:41.682Z,7.8
2019-03-18T06:39:43.228Z,7.8
2019-03-18T06:40:44.620Z,7.9
2019-03-18T06:41:46.201Z,7.9
2019-03-18T06:42:47.755Z,7.9
2019-03-18T06:43:49.308Z,7.8
2019-03-18T06:44:50.882Z,7.9
2019-03-18T06:45:52.120Z,7.9
2019-03-18T06:46:53.724Z,7.9
2019-03-18T06:48:09.735Z,7.9
2019-03-18T06:49:11.290Z,7.9
2019-03-18T06:50:12.900Z,7.9
2019-03-18T06:51:14.459Z,7.9
2019-03-18T06:52:16.020Z,7.9
2019-03-18T06:53:17.587Z,7.9
2019-03-18T06:54:18.980Z,7.9
2019-03-18T06:55:20.545Z,7.9
2019-03-18T06:56:21.775Z,7.9
2019-03-18T06:57:23.180Z,7.9
2019-03-18T06:58:24.406Z,7.9
2019-03-18T06:59:25.974Z,7.9
2019-03-18T07:00:27.371Z,7.9
2019-03-18T07:01:28.939Z,7.9
2019-03-18T07:02:30.336Z,7.9
2019-03-18T07:03:31.740Z,7.9
2019-03-18T07:04:33.325Z,7.9
2019-03-18T07:05:34.915Z,7.9
2019-03-18T07:06:36.470Z,7.9
2019-03-18T07:07:38.035Z,7.9
2019-03-18T07:08:39.630Z,7.9
2019-03-18T07:09:41.195Z,7.9
2019-03-18T07:10:42.643Z,7.9
2019-03-18T07:11:44.046Z,7.8
2019-03-18T07:12:45.618Z,7.8
2019-03-18T07:13:47.166Z,7.8
2019-03-18T07:14:48.612Z,7.8
2019-03-18T07:15:50.183Z,7.8
2019-03-18T07:16:51.740Z,7.8
2019-03-18T07:17:53.306Z,7.8
2019-03-18T07:18:54.882Z,7.8
2019-03-18T07:19:56.458Z,7.8
2019-03-18T07:20:57.856Z,7.8
2019-03-18T07:21:59.423Z,7.8
2019-03-18T07:23:00.980Z,7.8
2019-03-18T07:24:02.537Z,7.8
2019-03-18T07:25:03.964Z,7.8
2019-03-18T07:26:05.530Z,7.8
2019-03-18T07:27:07.092Z,7.7
2019-03-18T07:28:08.478Z,7.8
2019-03-18T07:29:09.880Z,7.8
2019-03-18T07:30:11.126Z,7.8
2019-03-18T07:31:12.520Z,7.8
2019-03-18T07:32:14.110Z,7.9
2019-03-18T07:33:15.512Z,7.9
2019-03-18T07:34:17.072Z,7.9
2019-03-18T07:35:18.651Z,7.9
2019-03-18T07:36:19.958Z,7.9
2019-03-18T07:37:21.515Z,7.9
2019-03-18T07:38:23.087Z,7.9
2019-03-18T07:39:24.323Z,7.9
2019-03-18T07:40:25.558Z,7.9
2019-03-18T07:41:27.126Z,7.8
2019-03-18T07:42:28.590Z,7.8
2019-03-18T07:43:29.985Z,7.8
2019-03-18T07:44:31.389Z,7.8
2019-03-18T07:45:32.946Z,7.8
2019-03-18T07:46:34.504Z,7.8
2019-03-18T07:47:35.574Z,7.8
2019-03-18T07:48:37.121Z,7.8
2019-03-18T07:49:38.534Z,7.8
2019-03-18T07:50:39.948Z,7.8
2019-03-18T07:51:41.516Z,7.8
2019-03-18T07:52:43.088Z,7.8
2019-03-18T07:53:44.496Z,7.9
2019-03-18T07:54:45.887Z,7.9
2019-03-18T07:55:47.159Z,7.8
2019-03-18T07:56:48.720Z,7.8
2019-03-18T07:57:50.302Z,7.8
2019-03-18T07:58:51.882Z,7.7
2019-03-18T07:59:53.470Z,7.7
2019-03-18T08:00:55.774Z,7.6
2019-03-18T08:01:57.295Z,7.4
2019-03-18T08:02:58.862Z,7.3
2019-03-18T08:04:00.428Z,7.2
2019-03-18T08:05:02.090Z,7.2
2019-03-18T08:06:03.507Z,7.1
2019-03-18T08:07:04.758Z,7.2
2019-03-18T08:08:06.318Z,7.1
2019-03-18T08:09:07.937Z,7.2
2019-03-18T08:10:09.355Z,7.1
2019-03-18T08:11:10.954Z,7.1
2019-03-18T08:12:12.538Z,7.1
2019-03-18T08:13:13.772Z,7.2
2019-03-18T08:14:17.547Z,7.1
2019-03-18T08:15:19.033Z,7.1
2019-03-18T08:16:20.582Z,7.2
2019-03-18T08:17:22.224Z,7.2
2019-03-18T08:18:23.840Z,7.2
2019-03-18T08:19:25.250Z,7.2
2019-03-18T08:20:26.652Z,7.2
2019-03-18T08:21:28.078Z,7.2
2019-03-18T08:22:29.669Z,7.3
2019-03-18T08:23:30.911Z,7.3
2019-03-18T08:24:32.399Z,7.4
2019-03-18T08:25:33.796Z,7.4
2019-03-18T08:26:35.350Z,7.5
2019-03-18T08:27:36.770Z,7.6
2019-03-18T08:28:38.367Z,7.8
2019-03-18T08:29:39.656Z,7.9
2019-03-18T08:30:41.048Z,7.9
2019-03-18T08:31:42.623Z,7.9
2019-03-18T08:32:44.136Z,7.9
2019-03-18T08:33:45.697Z,7.9
2019-03-18T08:34:47.255Z,7.9
2019-03-18T08:35:48.808Z,7.9
2019-03-18T08:36:50.360Z,7.9
2019-03-18T08:37:54.679Z,7.9
2019-03-18T08:38:56.497Z,7.9
2019-03-18T08:39:57.890Z,7.9
2019-03-18T08:40:59.305Z,7.9
2019-03-18T08:42:00.866Z,7.9
2019-03-18T08:43:02.277Z,7.9
2019-03-18T08:44:03.788Z,7.2
2019-03-18T08:45:05.179Z,7.2
2019-03-18T08:46:06.721Z,7.3
2019-03-18T08:47:08.278Z,7.3
2019-03-18T08:48:09.936Z,7.3
2019-03-18T08:49:11.510Z,7.3
2019-03-18T08:50:14.261Z,7.4
2019-03-18T08:51:15.817Z,7.4
2019-03-18T08:52:17.400Z,7.5
2019-03-18T08:53:18.985Z,7.5
2019-03-18T08:54:20.544Z,7.5
2019-03-18T08:55:21.958Z,7.5
2019-03-18T08:56:23.365Z,7.6
2019-03-18T08:57:24.926Z,7.6
2019-03-18T08:58:26.514Z,7.6
2019-03-18T08:59:28.062Z,7.6
2019-03-18T09:00:29.620Z,7.6
2019-03-18T09:01:31.025Z,7.6
2019-03-18T09:02:32.571Z,7.7
2019-03-18T09:03:34.130Z,7.7
2019-03-18T09:04:35.686Z,7.8
2019-03-18T09:05:37.324Z,7.8
2019-03-18T09:06:38.928Z,7.8
2019-03-18T09:07:40.582Z,7.9
2019-03-18T09:08:41.965Z,7.9
2019-03-18T09:09:43.640Z,7.9
2019-03-18T09:10:45.220Z,7.9
2019-03-18T09:11:46.660Z,7.8
2019-03-18T09:12:48.243Z,7.8
2019-03-18T09:13:49.802Z,7.8
2019-03-18T09:14:51.270Z,7.8
2019-03-18T09:15:52.814Z,7.8
2019-03-18T09:16:54.401Z,7.8
2019-03-18T09:17:55.978Z,7.8
2019-03-18T09:19:10.598Z,7.8
2019-03-18T09:20:12.178Z,7.8
2019-03-18T09:21:13.743Z,7.8
2019-03-18T09:22:15.149Z,7.8
2019-03-18T09:23:16.711Z,7.8
2019-03-18T09:24:18.119Z,7.8
2019-03-18T09:25:19.686Z,7.8
2019-03-18T09:26:21.228Z,7.7
2019-03-18T09:27:22.634Z,7.7
2019-03-18T09:28:24.057Z,7.7
2019-03-18T09:29:25.616Z,7.7
2019-03-18T09:30:27.191Z,7.8
2019-03-18T09:31:29.655Z,7.8
2019-03-18T09:32:31.290Z,7.8
2019-03-18T09:33:32.869Z,7.2
2019-03-18T09:34:34.333Z,7.3
2019-03-18T09:35:35.807Z,7.4
2019-03-18T09:36:37.181Z,7.5
2019-03-18T09:37:38.740Z,7.6
2019-03-18T09:38:40.124Z,7.8
2019-03-18T09:39:41.374Z,7.9
2019-03-18T09:40:42.957Z,7.9
2019-03-18T09:41:44.200Z,7.9
2019-03-18T09:42:45.622Z,7.9
2019-03-18T09:43:47.022Z,7.9
2019-03-18T09:44:48.432Z,7.8
2019-03-18T09:45:50.111Z,7.8
2019-03-18T09:46:51.666Z,7.7
2019-03-18T09:47:56.032Z,7.6
2019-03-18T09:48:57.776Z,7.4
2019-03-18T09:49:58.840Z,7.3
2019-03-18T09:51:00.213Z,7.2
2019-03-18T09:52:01.450Z,7.1
2019-03-18T09:53:02.849Z,7.1
2019-03-18T09:54:04.110Z,7.1
2019-03-18T09:55:05.779Z,7.1
2019-03-18T09:56:07.002Z,7.1
2019-03-18T09:57:08.412Z,7.2
2019-03-18T09:58:09.969Z,7.1
2019-03-18T09:59:11.614Z,7.2
2019-03-18T10:00:14.022Z,7.2
2019-03-18T10:01:15.606Z,7.2
2019-03-18T10:02:16.990Z,7.2
2019-03-18T10:03:18.380Z,7.2
2019-03-18T10:04:19.793Z,7.1
2019-03-18T10:05:21.383Z,7.2
2019-03-18T10:06:22.605Z,7.2
2019-03-18T10:07:24.168Z,7.2
2019-03-18T10:08:26.849Z,7.2
2019-03-18T10:09:28.292Z,7.2
2019-03-18T10:10:29.542Z,7.2
2019-03-18T10:11:31.120Z,7.2
2019-03-18T10:12:32.368Z,7.2
2019-03-18T10:13:33.753Z,7.2
2019-03-18T10:14:35.379Z,7.2
2019-03-18T10:15:36.814Z,7.2
2019-03-18T10:16:38.210Z,7.2
2019-03-18T10:17:39.621Z,7.2
2019-03-18T10:18:41.181Z,7.2
2019-03-18T10:19:42.747Z,7.2
2019-03-18T10:20:43.986Z,7.3
2019-03-18T10:21:45.394Z,7.3
2019-03-18T10:22:46.662Z,7.4
2019-03-18T10:23:48.069Z,7.5
2019-03-18T10:24:49.327Z,7.6
2019-03-18T10:25:50.892Z,7.7
2019-03-18T10:26:52.144Z,7.8
2019-03-18T10:27:53.704Z,7.8
2019-03-18T10:28:55.273Z,7.9
2019-03-18T10:29:56.851Z,7.9
2019-03-18T10:30:58.244Z,7.9
2019-03-18T10:31:59.629Z,7.5
2019-03-18T10:33:01.185Z,7.6
2019-03-18T10:34:02.779Z,7.7
2019-03-18T10:35:04.349Z,7.9
2019-03-18T10:36:05.932Z,7.9
2019-03-18T10:37:07.483Z,7.8
2019-03-18T10:38:08.905Z,7.9
2019-03-18T10:39:10.304Z,7.8
2019-03-18T10:40:11.534Z,7.9
2019-03-18T10:41:12.774Z,7.9
2019-03-18T10:42:14.315Z,7.9
2019-03-18T10:43:15.880Z,7.3
2019-03-18T10:44:17.269Z,7.4
2019-03-18T10:45:18.851Z,7.6
2019-03-18T10:46:20.442Z,7.7
2019-03-18T10:47:21.563Z,7.8
2019-03-18T10:48:23.146Z,7.9
2019-03-18T10:49:24.691Z,7.9
2019-03-18T10:50:26.090Z,7.9
2019-03-18T10:51:27.666Z,7.9
2019-03-18T10:52:29.388Z,7.9
2019-03-18T10:53:30.923Z,7.9
2019-03-18T10:54:33.035Z,7.9
2019-03-18T10:55:34.626Z,7.8
2019-03-18T10:56:36.173Z,7.8
2019-03-18T10:57:37.750Z,7.8
2019-03-18T10:58:39.314Z,7.8
2019-03-18T10:59:40.613Z,7.8
2019-03-18T11:00:41.919Z,7.9
2019-03-18T11:01:43.496Z,7.9
2019-03-18T11:02:46.965Z,7.9
2019-03-18T11:03:48.524Z,7.9
2019-03-18T11:04:50.093Z,7.9
2019-03-18T11:05:51.424Z,7.9
2019-03-18T11:06:52.991Z,7.9
2019-03-18T11:07:54.420Z,7.9
2019-03-18T11:08:55.981Z,7.9
2019-03-18T11:09:57.391Z,7.9
2019-03-18T11:10:58.872Z,7.9
2019-03-18T11:12:00.443Z,7.9
2019-03-18T11:13:02.012Z,7.8
2019-03-18T11:14:03.605Z,7.8
2019-03-18T11:15:05.013Z,7.8
2019-03-18T11:16:06.257Z,7.8
2019-03-18T11:17:07.813Z,7.8
2019-03-18T11:18:09.490Z,7.8
2019-03-18T11:19:10.891Z,7.8
2019-03-18T11:20:12.290Z,7.9
2019-03-18T11:21:13.752Z,7.8
2019-03-18T11:22:15.168Z,7.8
2019-03-18T11:23:16.708Z,7.8
2019-03-18T11:24:18.171Z,7.8
2019-03-18T11:25:19.755Z,7.8
2019-03-18T11:26:21.321Z,7.8
2019-03-18T11:27:22.862Z,7.8
2019-03-18T11:28:24.120Z,7.8
2019-03-18T11:29:25.687Z,7.8
2019-03-18T11:30:27.233Z,7.8
2019-03-18T11:31:28.614Z,7.8
2019-03-18T11:32:30.150Z,7.9
2019-03-18T11:33:31.626Z,7.9
2019-03-18T11:34:33.170Z,7.9
2019-03-18T11:35:34.740Z,7.8
2019-03-18T11:36:36.296Z,7.8
2019-03-18T11:37:37.859Z,7.7
2019-03-18T11:38:39.405Z,7.6
2019-03-18T11:39:40.949Z,7.5
2019-03-18T11:40:42.531Z,7.4
2019-03-18T11:41:44.081Z,7.3
2019-03-18T11:42:45.482Z,7.2
2019-03-18T11:43:47.082Z,7.2
2019-03-18T11:44:48.467Z,7.2
2019-03-18T11:45:50.031Z,7.2
2019-03-18T11:46:51.277Z,7.2
2019-03-18T11:47:52.689Z,7.2
2019-03-18T11:48:54.071Z,7.1
2019-03-18T11:49:55.643Z,7.1
2019-03-18T11:50:57.193Z,7.1
2019-03-18T11:51:58.595Z,7.2
2019-03-18T11:52:59.974Z,7.1
2019-03-18T11:54:01.512Z,7.2
2019-03-18T11:55:03.132Z,7.2
2019-03-18T11:56:04.675Z,7.2
2019-03-18T11:57:05.910Z,7.2
2019-03-18T11:58:07.159Z,7.2
2019-03-18T11:59:08.562Z,7.2
2019-03-18T12:00:10.027Z,7.2
2019-03-18T12:01:11.409Z,7.2
2019-03-18T12:02:12.844Z,7.2
2019-03-18T12:03:14.427Z,7.2
2019-03-18T12:04:15.837Z,7.2
2019-03-18T12:05:17.399Z,7.2
2019-03-18T12:06:18.956Z,7.2
2019-03-18T12:07:20.523Z,7.2
2019-03-18T12:08:22.077Z,7.2
2019-03-18T12:09:23.473Z,7.2
2019-03-18T12:10:27.517Z,7.3
2019-03-18T12:11:28.881Z,7.3
2019-03-18T12:12:30.282Z,7.4
2019-03-18T12:13:31.839Z,7.4
2019-03-18T12:14:33.410Z,7.4
2019-03-18T12:15:38.001Z,7.5
2019-03-18T12:16:39.555Z,7.5
2019-03-18T12:17:41.130Z,7.5
2019-03-18T12:18:42.373Z,7.6
2019-03-18T12:19:43.791Z,7.6
2019-03-18T12:20:45.363Z,7.6
2019-03-18T12:21:46.903Z,7.6
2019-03-18T12:22:48.446Z,7.7
2019-03-18T12:23:49.928Z,7.8
2019-03-18T12:24:51.493Z,7.8
2019-03-18T12:25:53.289Z,7.9
2019-03-18T12:26:54.719Z,7.9
2019-03-18T12:27:56.183Z,7.9
2019-03-18T12:28:57.739Z,7.9
2019-03-18T12:29:58.999Z,7.9
2019-03-18T12:31:00.582Z,7.9
2019-03-18T12:32:01.833Z,7.9
2019-03-18T12:33:03.130Z,7.9
2019-03-18T12:34:04.553Z,7.9
2019-03-18T12:35:05.962Z,7.9
2019-03-18T12:36:07.524Z,7.9
2019-03-18T12:37:09.086Z,7.8
2019-03-18T12:38:10.634Z,7.8
2019-03-18T12:39:11.866Z,7.8
2019-03-18T12:40:13.419Z,7.8
2019-03-18T12:41:14.516Z,7.8
2019-03-18T12:42:16.079Z,7.9
2019-03-18T12:43:17.503Z,7.9
2019-03-18T12:44:19.069Z,7.9
2019-03-18T12:45:20.646Z,7.9
2019-03-18T12:46:22.027Z,7.9
2019-03-18T12:47:23.430Z,7.9
2019-03-18T12:48:25.091Z,7.9
2019-03-18T12:49:26.676Z,7.9
2019-03-18T12:50:58.005Z,7.9
2019-03-18T12:51:59.423Z,7.9
2019-03-18T12:53:00.751Z,7.8
2019-03-18T12:54:02.170Z,7.8
2019-03-18T12:55:03.804Z,7.8
2019-03-18T12:56:05.213Z,7.8
2019-03-18T12:57:06.613Z,7.8
2019-03-18T12:58:08.191Z,7.8
2019-03-18T12:59:09.871Z,7.8
2019-03-18T13:00:11.431Z,7.9
2019-03-18T13:01:14.277Z,7.9
2019-03-18T13:02:15.714Z,7.9
2019-03-18T13:03:17.286Z,7.9
2019-03-18T13:04:18.393Z,7.9
2019-03-18T13:05:19.969Z,7.2
2019-03-18T13:06:21.532Z,7.3
2019-03-18T13:07:22.959Z,7.3
2019-03-18T13:08:24.355Z,7.4
2019-03-18T13:09:25.922Z,7.3
2019-03-18T13:10:27.500Z,7.3
2019-03-18T13:11:29.079Z,7.2
2019-03-18T13:12:30.641Z,7.2
2019-03-18T13:13:32.215Z,7.2
2019-03-18T13:14:33.607Z,7.1
2019-03-18T13:15:35.182Z,7.1
2019-03-18T13:16:36.732Z,7.1
2019-03-18T13:17:38.277Z,7.2
2019-03-18T13:18:39.637Z,7.2
2019-03-18T13:19:41.205Z,7.2
2019-03-18T13:20:42.775Z,7.1
2019-03-18T13:21:44.351Z,7.1
2019-03-18T13:22:45.823Z,7.1
2019-03-18T13:23:47.391Z,7.1
2019-03-18T13:24:48.627Z,7.1
2019-03-18T13:25:50.215Z,7.1
2019-03-18T13:26:51.785Z,7.1
2019-03-18T13:27:53.344Z,7.1
2019-03-18T13:28:54.742Z,7.1
2019-03-18T13:29:56.289Z,7.1
2019-03-18T13:30:57.839Z,7.2
2019-03-18T13:31:59.241Z,7.2
2019-03-18T13:33:00.891Z,7.2
2019-03-18T13:34:02.149Z,7.2
2019-03-18T13:35:03.579Z,7.2
2019-03-18T13:36:05.040Z,7.2
2019-03-18T13:37:06.592Z,7.2
2019-03-18T13:38:08.161Z,7.2
2019-03-18T13:39:09.577Z,7.3
2019-03-18T13:40:11.143Z,7.3
2019-03-18T13:41:12.686Z,7.4
2019-03-18T13:42:13.931Z,7.5
2019-03-18T13:43:15.170Z,7.5
2019-03-18T13:44:16.741Z,7.6
2019-03-18T13:45:18.333Z,7.8
2019-03-18T13:46:20.251Z,7.9
2019-03-18T13:47:21.527Z,7.9
2019-03-18T13:48:23.125Z,7.7
2019-03-18T13:49:24.686Z,7.9
2019-03-18T13:50:25.772Z,7.8
2019-03-18T13:51:27.341Z,7.9
2019-03-18T13:52:28.769Z,7.9
2019-03-18T13:53:30.183Z,7.9
2019-03-18T13:54:33.850Z,7.9
2019-03-18T13:55:35.408Z,7.9
2019-03-18T13:56:36.955Z,7.6
2019-03-18T13:57:38.532Z,7.8
2019-03-18T13:58:40.101Z,7.9
2019-03-18T13:59:41.472Z,7.9
2019-03-18T14:00:42.707Z,7.9
2019-03-18T14:01:44.257Z,7.9
2019-03-18T14:02:45.841Z,7.9
2019-03-18T14:03:47.301Z,7.9
2019-03-18T14:04:48.698Z,7.9
2019-03-18T14:05:50.277Z,7.9
2019-03-18T14:06:51.842Z,7.8
2019-03-18T14:08:02.748Z,7.9
2019-03-18T14:09:04.144Z,7.9
2019-03-18T14:10:05.564Z,7.9
2019-03-18T14:11:06.957Z,7.9
2019-03-18T14:12:08.356Z,7.9
2019-03-18T14:13:09.928Z,7.9